createdAt,value
2022-09-28T00:01:57.042Z,99303.66
2022-09-28T00:04:25.946Z,99301.06
2022-09-28T00:06:55.872Z,99297.66
2022-09-28T00:09:24.407Z,99302.84
2022-09-28T00:11:53.731Z,99307.19
2022-09-28T00:14:22.491Z,99297.72
2022-09-28T00:16:51.088Z,99305.53
2022-09-28T00:19:19.688Z,99302.06
2022-09-28T00:21:48.230Z,99302.06
2022-09-28T00:24:20.523Z,99303.84
2022-09-28T00:26:52.082Z,99290.00
2022-09-28T00:29:23.487Z,99295.19
2022-09-28T00:31:54.282Z,99290.00
2022-09-28T00:34:22.806Z,99290.84
2022-09-28T00:36:51.307Z,99293.47
2022-09-28T00:39:21.557Z,99291.69
2022-09-28T00:41:51.018Z,99284.78
2022-09-28T00:44:43.311Z,99288.19
2022-09-28T00:47:32.710Z,99289.03
2022-09-28T00:50:04.551Z,99284.72
2022-09-28T00:52:37.166Z,99281.25
2022-09-28T00:55:10.827Z,99276.97
2022-09-28T00:57:43.423Z,99277.00
2022-09-28T01:00:13.666Z,99279.63
2022-09-28T01:02:44.130Z,99279.59
2022-09-28T01:05:14.106Z,99283.88
2022-09-28T01:07:43.883Z,99274.41
2022-09-28T01:10:14.023Z,99281.25
2022-09-28T01:12:42.590Z,99276.94
2022-09-28T01:15:12.100Z,99284.72
2022-09-28T01:17:55.360Z,99281.25
2022-09-28T01:20:53.021Z,99277.88
2022-09-28T01:23:53.098Z,99276.97
2022-09-28T01:26:38.737Z,99281.31
2022-09-28T01:29:16.275Z,99277.91
2022-09-28T01:31:50.162Z,99269.28
2022-09-28T01:34:25.439Z,99261.50
2022-09-28T01:36:57.381Z,99268.38
2022-09-28T01:39:30.689Z,99258.91
2022-09-28T01:42:05.961Z,99261.53
2022-09-28T01:44:39.879Z,99257.19
2022-09-28T01:47:11.524Z,99259.78
2022-09-28T01:49:46.017Z,99257.19
2022-09-28T01:52:18.529Z,99252.84
2022-09-28T01:54:50.504Z,99252.03
2022-09-28T01:57:25.723Z,99254.63
2022-09-28T01:59:59.940Z,99249.47
2022-09-28T02:02:34.056Z,99249.41
2022-09-28T02:05:09.041Z,99257.19
2022-09-28T02:07:42.530Z,99258.91
2022-09-28T02:10:16.508Z,99258.09
2022-09-28T02:12:49.972Z,99251.13
2022-09-28T02:15:24.617Z,99247.66
2022-09-28T02:17:53.684Z,99253.72
2022-09-28T02:20:22.941Z,99246.75
2022-09-28T02:22:55.840Z,99247.63
2022-09-28T02:25:31.297Z,99242.47
2022-09-28T02:28:02.970Z,99243.28
2022-09-28T02:30:32.116Z,99233.78
2022-09-28T02:33:04.684Z,99241.53
2022-09-28T02:35:34.971Z,99245.03
2022-09-28T02:38:03.661Z,99236.34
2022-09-28T02:40:34.919Z,99232.88
2022-09-28T02:43:15.079Z,99231.16
2022-09-28T02:45:53.600Z,99234.56
2022-09-28T02:48:43.935Z,99241.44
2022-09-28T02:51:23.999Z,99234.53
2022-09-28T02:54:22.660Z,99240.56
2022-09-28T02:57:07.016Z,99235.41
2022-09-28T02:59:50.567Z,99231.94
2022-09-28T03:02:29.894Z,99232.78
2022-09-28T03:05:15.127Z,99230.19
2022-09-28T03:07:52.157Z,99236.22
2022-09-28T03:10:26.351Z,99223.25
2022-09-28T03:12:55.823Z,99222.38
2022-09-28T03:15:27.862Z,99220.66
2022-09-28T03:17:57.250Z,99213.72
2022-09-28T03:20:26.147Z,99212.00
2022-09-28T03:23:12.688Z,99211.16
2022-09-28T03:25:43.168Z,99208.53
2022-09-28T03:28:11.658Z,99210.28
2022-09-28T03:30:43.509Z,99220.63
2022-09-28T03:33:12.008Z,99210.25
2022-09-28T03:35:40.601Z,99210.25
2022-09-28T03:38:09.358Z,99206.78
2022-09-28T03:40:37.907Z,99203.28
2022-09-28T03:43:06.488Z,99200.69
2022-09-28T03:45:35.166Z,99204.13
2022-09-28T03:48:05.248Z,99199.75
2022-09-28T03:50:33.847Z,99204.03
2022-09-28T03:53:05.988Z,99202.25
2022-09-28T03:55:34.612Z,99194.41
2022-09-28T03:58:03.127Z,99193.50
2022-09-28T04:00:31.658Z,99199.50
2022-09-28T04:03:00.227Z,99188.25
2022-09-28T04:05:30.197Z,99192.50
2022-09-28T04:07:58.821Z,99195.91
2022-09-28T04:10:27.866Z,99185.53
2022-09-28T04:12:57.211Z,99175.09
2022-09-28T04:15:26.273Z,99181.09
2022-09-28T04:17:54.896Z,99169.88
2022-09-28T04:20:23.419Z,99169.88
2022-09-28T04:22:53.384Z,99178.47
2022-09-28T04:25:21.967Z,99175.88
2022-09-28T04:28:08.348Z,99175.88
2022-09-28T04:30:36.916Z,99174.97
2022-09-28T04:33:05.407Z,99185.31
2022-09-28T04:35:33.913Z,99174.09
2022-09-28T04:38:03.840Z,99186.19
2022-09-28T04:40:32.387Z,99181.94
2022-09-28T04:43:00.966Z,99183.72
2022-09-28T04:45:29.509Z,99182.06
2022-09-28T04:47:58.086Z,99176.91
2022-09-28T04:50:26.579Z,99181.25
2022-09-28T04:52:55.190Z,99184.75
2022-09-28T04:55:25.079Z,99187.31
2022-09-28T04:57:53.960Z,99184.75
2022-09-28T05:00:22.537Z,99188.25
2022-09-28T05:02:51.018Z,99193.44
2022-09-28T05:05:19.513Z,99187.41
2022-09-28T05:07:48.067Z,99198.66
2022-09-28T05:10:19.945Z,99190.94
2022-09-28T05:12:49.945Z,99196.13
2022-09-28T05:15:18.585Z,99194.41
2022-09-28T05:17:47.074Z,99197.03
2022-09-28T05:20:15.757Z,99196.16
2022-09-28T05:22:44.335Z,99194.47
2022-09-28T05:25:12.890Z,99196.19
2022-09-28T05:27:41.379Z,99189.34
2022-09-28T05:30:12.672Z,99199.69
2022-09-28T05:32:41.712Z,99194.50
2022-09-28T05:35:12.299Z,99192.75
2022-09-28T05:37:41.209Z,99191.09
2022-09-28T05:40:10.800Z,99191.97
2022-09-28T05:42:39.435Z,99190.22
2022-09-28T05:45:09.192Z,99184.16
2022-09-28T05:47:40.952Z,99182.47
2022-09-28T05:50:11.847Z,99188.56
2022-09-28T05:52:40.385Z,99178.22
2022-09-28T05:55:09.980Z,99180.81
2022-09-28T05:57:38.658Z,99175.66
2022-09-28T06:00:09.684Z,99169.56
2022-09-28T06:02:39.710Z,99161.84
2022-09-28T06:05:08.948Z,99166.19
2022-09-28T06:07:37.651Z,99161.88
2022-09-28T06:10:07.036Z,99158.47
2022-09-28T06:12:35.597Z,99166.22
2022-09-28T06:15:04.360Z,99158.50
2022-09-28T06:17:32.830Z,99154.19
2022-09-28T06:20:03.001Z,99146.44
2022-09-28T06:22:31.552Z,99157.66
2022-09-28T06:25:00.107Z,99153.34
2022-09-28T06:27:28.600Z,99147.28
2022-09-28T06:29:57.080Z,99153.34
2022-09-28T06:32:25.603Z,99143.81
2022-09-28T06:34:56.329Z,99149.03
2022-09-28T06:37:27.782Z,99149.94
2022-09-28T06:39:56.264Z,99144.72
2022-09-28T06:42:24.778Z,99152.53
2022-09-28T06:44:53.300Z,99143.06
2022-09-28T06:47:21.899Z,99143.94
2022-09-28T06:49:51.335Z,99144.78
2022-09-28T06:52:19.843Z,99148.28
2022-09-28T06:54:49.751Z,99147.41
2022-09-28T06:57:18.273Z,99143.09
2022-09-28T06:59:46.766Z,99139.66
2022-09-28T07:02:15.465Z,99131.06
2022-09-28T07:04:44.359Z,99136.25
2022-09-28T07:07:14.308Z,99131.94
2022-09-28T07:09:48.101Z,99136.25
2022-09-28T07:12:20.293Z,99136.28
2022-09-28T07:14:50.307Z,99139.78
2022-09-28T07:17:19.150Z,99132.00
2022-09-28T07:19:52.718Z,99138.13
2022-09-28T07:22:34.473Z,99141.63
2022-09-28T07:25:09.730Z,99139.06
2022-09-28T07:27:39.659Z,99138.25
2022-09-28T07:30:09.421Z,99134.81
2022-09-28T07:32:38.024Z,99142.63
2022-09-28T07:35:08.333Z,99141.78
2022-09-28T07:37:37.308Z,99140.09
2022-09-28T07:40:25.114Z,99139.25
2022-09-28T07:42:55.191Z,99142.72
2022-09-28T07:45:24.906Z,99145.34
2022-09-28T07:47:56.404Z,99152.31
2022-09-28T07:50:25.355Z,99150.63
2022-09-28T07:52:53.875Z,99148.91
2022-09-28T07:55:22.439Z,99148.94
2022-09-28T07:57:59.641Z,99154.13
2022-09-28T08:00:31.954Z,99149.00
2022-09-28T08:03:03.868Z,99145.56
2022-09-28T08:05:32.397Z,99140.34
2022-09-28T08:08:01.296Z,99154.25
2022-09-28T08:10:30.004Z,99150.81
2022-09-28T08:13:04.736Z,99150.81
2022-09-28T08:15:37.114Z,99149.06
2022-09-28T08:18:06.328Z,99152.56
2022-09-28T08:20:52.544Z,99153.44
2022-09-28T08:23:21.896Z,99159.53
2022-09-28T08:25:52.641Z,99158.69
2022-09-28T08:28:23.868Z,99165.63
2022-09-28T08:30:52.544Z,99156.97
2022-09-28T08:33:22.647Z,99163.03
2022-09-28T08:35:57.812Z,99157.84
2022-09-28T08:38:26.767Z,99166.53
2022-09-28T08:41:05.457Z,99163.94
2022-09-28T08:44:07.671Z,99163.94
2022-09-28T08:46:41.979Z,99166.56
2022-09-28T08:49:27.578Z,99167.41
2022-09-28T08:51:58.804Z,99168.28
2022-09-28T08:54:35.105Z,99163.94
2022-09-28T08:57:08.476Z,99170.91
2022-09-28T08:59:46.734Z,99166.56
2022-09-28T09:02:19.573Z,99170.91
2022-09-28T09:04:48.714Z,99170.88
2022-09-28T09:07:48.191Z,99175.25
2022-09-28T09:10:36.372Z,99167.44
2022-09-28T09:13:19.136Z,99170.03
2022-09-28T09:15:55.265Z,99160.53
2022-09-28T09:18:32.587Z,99161.41
2022-09-28T09:21:08.985Z,99166.59
2022-09-28T09:23:40.110Z,99161.41
2022-09-28T09:26:19.867Z,99164.03
2022-09-28T09:29:18.516Z,99163.16
2022-09-28T09:32:04.090Z,99161.38
2022-09-28T09:34:52.715Z,99162.28
2022-09-28T09:37:43.999Z,99160.53
2022-09-28T09:40:30.511Z,99159.66
2022-09-28T09:43:10.100Z,99156.19
2022-09-28T09:45:55.071Z,99156.16
2022-09-28T09:48:30.782Z,99154.44
2022-09-28T09:51:01.744Z,99157.00
2022-09-28T09:53:38.599Z,99162.22
2022-09-28T09:56:14.362Z,99157.00
2022-09-28T09:58:48.052Z,99148.31
2022-09-28T10:01:21.324Z,99150.91
2022-09-28T10:03:52.324Z,99153.50
2022-09-28T10:06:27.700Z,99154.34
2022-09-28T10:09:04.575Z,99155.22
2022-09-28T10:11:38.365Z,99145.66
2022-09-28T10:14:08.272Z,99139.59
2022-09-28T10:16:37.314Z,99141.34
2022-09-28T10:19:08.973Z,99150.91
2022-09-28T10:21:41.134Z,99147.41
2022-09-28T10:24:16.678Z,99145.66
2022-09-28T10:26:50.955Z,99150.88
2022-09-28T10:29:22.569Z,99141.34
2022-09-28T10:31:52.535Z,99150.00
2022-09-28T10:34:28.352Z,99155.22
2022-09-28T10:37:00.599Z,99152.59
2022-09-28T10:39:33.360Z,99149.09
2022-09-28T10:42:04.678Z,99155.09
2022-09-28T10:44:35.600Z,99149.66
2022-09-28T10:47:08.107Z,99151.38
2022-09-28T10:49:47.042Z,99150.38
2022-09-28T10:52:38.436Z,99155.34
2022-09-28T10:55:28.903Z,99146.56
2022-09-28T10:57:57.855Z,99148.25
2022-09-28T11:00:35.742Z,99156.06
2022-09-28T11:03:04.941Z,99152.69
2022-09-28T11:05:36.012Z,99153.69
2022-09-28T11:08:08.748Z,99155.53
2022-09-28T11:10:37.475Z,99158.25
2022-09-28T11:13:10.760Z,99148.75
2022-09-28T11:15:44.843Z,99158.38
2022-09-28T11:18:22.562Z,99158.47
2022-09-28T11:20:52.647Z,99161.13
2022-09-28T11:23:25.326Z,99158.53
2022-09-28T11:25:59.910Z,99168.16
2022-09-28T11:28:33.778Z,99166.41
2022-09-28T11:31:03.361Z,99164.69
2022-09-28T11:33:34.792Z,99158.63
2022-09-28T11:36:29.493Z,99159.50
2022-09-28T11:39:08.469Z,99156.88
2022-09-28T11:41:55.460Z,99166.41
2022-09-28T11:44:41.402Z,99162.00
2022-09-28T11:47:44.930Z,99165.41
2022-09-28T11:50:24.606Z,99163.56
2022-09-28T11:53:02.964Z,99167.00
2022-09-28T11:55:37.684Z,99169.63
2022-09-28T11:58:12.874Z,99159.25
2022-09-28T12:00:47.347Z,99166.19
2022-09-28T12:03:19.765Z,99170.59
2022-09-28T12:05:53.001Z,99171.50
2022-09-28T12:08:27.787Z,99166.38
2022-09-28T12:11:01.883Z,99173.34
2022-09-28T12:13:35.818Z,99181.19
2022-09-28T12:16:32.327Z,99176.84
2022-09-28T12:19:02.953Z,99178.63
2022-09-28T12:21:38.437Z,99175.16
2022-09-28T12:24:17.310Z,99176.84
2022-09-28T12:26:53.206Z,99175.09
2022-09-28T12:29:27.763Z,99175.03
2022-09-28T12:32:06.471Z,99181.13
2022-09-28T12:34:35.224Z,99169.84
2022-09-28T12:37:29.094Z,99172.44
2022-09-28T12:40:24.052Z,99167.19
2022-09-28T12:43:07.384Z,99165.41
2022-09-28T12:46:10.451Z,99169.78
2022-09-28T12:51:59.989Z,99164.69
2022-09-28T12:54:53.469Z,99173.38
2022-09-28T12:57:39.207Z,99169.88
2022-09-28T13:00:13.034Z,99174.22
2022-09-28T13:02:56.792Z,99175.13
2022-09-28T13:05:50.405Z,99165.59
2022-09-28T13:08:27.253Z,99176.91
2022-09-28T13:11:08.062Z,99173.44
2022-09-28T13:13:47.994Z,99178.63
2022-09-28T13:16:25.000Z,99180.34
2022-09-28T13:19:02.272Z,99180.34
2022-09-28T13:21:37.785Z,99180.38
2022-09-28T13:24:31.070Z,99178.63
2022-09-28T13:27:07.216Z,99184.72
2022-09-28T13:32:14.135Z,99185.53
2022-09-28T13:34:43.006Z,99176.84
2022-09-28T13:37:24.161Z,99179.44
2022-09-28T13:39:55.116Z,99180.25
2022-09-28T13:42:38.032Z,99185.38
2022-09-28T13:45:33.548Z,99187.16
2022-09-28T13:48:15.768Z,99188.00
2022-09-28T13:51:12.464Z,99191.53
2022-09-28T13:53:59.819Z,99194.16
2022-09-28T13:56:39.248Z,99195.88
2022-09-28T13:59:20.389Z,99192.44
2022-09-28T14:01:57.833Z,99192.47
2022-09-28T14:04:54.737Z,99193.34
2022-09-28T14:10:20.978Z,99208.09
2022-09-28T14:12:51.589Z,99209.84
2022-09-28T14:15:44.206Z,99208.09
2022-09-28T14:18:23.613Z,99208.97
2022-09-28T14:21:13.600Z,99210.72
2022-09-28T14:24:00.828Z,99210.72
2022-09-28T14:26:58.014Z,99212.47
2022-09-28T14:29:29.571Z,99212.47
2022-09-28T14:31:59.653Z,99213.31
2022-09-28T14:34:35.448Z,99208.09
2022-09-28T14:37:23.526Z,99213.22
2022-09-28T14:40:10.040Z,99214.91
2022-09-28T14:42:38.917Z,99216.69
2022-09-28T14:45:34.967Z,99222.81
2022-09-28T14:48:19.914Z,99223.72
2022-09-28T14:50:50.481Z,99224.63
2022-09-28T14:53:24.944Z,99232.44
2022-09-28T14:55:59.125Z,99229.84
2022-09-28T14:58:32.520Z,99227.22
2022-09-28T15:01:05.990Z,99229.84
2022-09-28T15:03:36.676Z,99229.84
2022-09-28T15:06:07.123Z,99233.34
2022-09-28T15:08:40.492Z,99228.13
2022-09-28T15:11:16.821Z,99227.28
2022-09-28T15:13:45.496Z,99225.53
2022-09-28T15:16:16.690Z,99234.22
2022-09-28T15:19:18.712Z,99233.34
2022-09-28T15:21:50.247Z,99234.22
2022-09-28T15:24:31.162Z,99235.94
2022-09-28T15:27:01.825Z,99239.41
2022-09-28T15:29:33.414Z,99239.44
2022-09-28T15:32:02.910Z,99240.31
2022-09-28T15:34:50.464Z,99241.19
2022-09-28T15:37:23.972Z,99239.47
2022-09-28T15:39:54.898Z,99246.38
2022-09-28T15:42:24.986Z,99250.72
2022-09-28T15:45:26.893Z,99256.81
2022-09-28T15:48:16.188Z,99251.59
2022-09-28T15:50:58.496Z,99253.34
2022-09-28T15:53:28.812Z,99253.34
2022-09-28T15:56:03.636Z,99259.41
2022-09-28T15:58:32.273Z,99255.94
2022-09-28T16:01:23.356Z,99266.34
2022-09-28T16:03:52.264Z,99264.63
2022-09-28T16:06:21.350Z,99262.00
2022-09-28T16:08:51.333Z,99263.75
2022-09-28T16:11:24.310Z,99267.22
2022-09-28T16:14:06.071Z,99271.56
2022-09-28T16:16:40.319Z,99269.81
2022-09-28T16:19:24.128Z,99277.63
2022-09-28T16:21:55.769Z,99273.28
2022-09-28T16:24:29.129Z,99283.69
2022-09-28T16:27:00.132Z,99288.88
2022-09-28T16:29:36.327Z,99292.38
2022-09-28T16:32:41.844Z,99295.00
2022-09-28T16:35:19.920Z,99301.06
2022-09-28T16:37:50.647Z,99289.78
2022-09-28T16:40:20.951Z,99301.91
2022-09-28T16:42:50.261Z,99304.50
2022-09-28T16:45:21.172Z,99307.94
2022-09-28T16:47:52.386Z,99311.38
2022-09-28T16:50:21.815Z,99310.47
2022-09-28T16:53:15.361Z,99309.59
2022-09-28T16:55:46.654Z,99311.34
2022-09-28T16:58:15.161Z,99315.69
2022-09-28T17:00:45.844Z,99314.81
2022-09-28T17:03:16.037Z,99319.09
2022-09-28T17:05:45.713Z,99317.34
2022-09-28T17:08:17.610Z,99325.16
2022-09-28T17:13:41.384Z,99326.00
2022-09-28T17:16:14.101Z,99329.47
2022-09-28T17:18:43.182Z,99324.19
2022-09-28T17:21:15.862Z,99327.66
2022-09-28T17:23:44.781Z,99332.84
2022-09-28T17:26:21.824Z,99333.69
2022-09-28T17:28:50.572Z,99338.88
2022-09-28T17:31:19.268Z,99339.72
2022-09-28T17:33:48.094Z,99342.31
2022-09-28T17:36:18.453Z,99342.31
2022-09-28T17:38:48.735Z,99349.25
2022-09-28T17:41:20.989Z,99350.09
2022-09-28T17:43:50.445Z,99352.72
2022-09-28T17:46:28.000Z,99344.91
2022-09-28T17:48:59.476Z,99350.94
2022-09-28T17:51:30.210Z,99351.81
2022-09-28T17:54:00.947Z,99348.34
2022-09-28T17:56:32.641Z,99359.59
2022-09-28T17:59:03.764Z,99356.97
2022-09-28T18:01:34.529Z,99355.22
2022-09-28T18:04:05.008Z,99356.06
2022-09-28T18:06:34.460Z,99358.69
2022-09-28T18:09:04.120Z,99361.25
2022-09-28T18:11:35.349Z,99368.16
2022-09-28T18:14:06.789Z,99363.88
2022-09-28T18:16:38.180Z,99370.78
2022-09-28T18:19:06.846Z,99365.56
2022-09-28T18:21:35.433Z,99370.81
2022-09-28T18:24:04.437Z,99377.69
2022-09-28T18:26:34.571Z,99377.69
2022-09-28T18:29:03.117Z,99385.47
2022-09-28T18:31:31.733Z,99379.38
2022-09-28T18:34:01.733Z,99380.28
2022-09-28T18:36:30.860Z,99385.41
2022-09-28T18:39:02.679Z,99391.44
2022-09-28T18:41:31.228Z,99399.25
2022-09-28T18:44:01.655Z,99400.13
2022-09-28T18:46:31.401Z,99401.81
2022-09-28T18:48:59.994Z,99399.22
2022-09-28T18:51:28.500Z,99402.72
2022-09-28T18:53:57.348Z,99400.09
2022-09-28T18:56:26.848Z,99422.59
2022-09-28T18:58:56.952Z,99420.91
2022-09-28T19:01:31.306Z,99422.59
2022-09-28T19:04:01.547Z,99419.97
2022-09-28T19:06:30.751Z,99426.00
2022-09-28T19:08:59.702Z,99420.81
2022-09-28T19:11:28.981Z,99423.41
2022-09-28T19:13:57.907Z,99423.38
2022-09-28T19:16:29.886Z,99425.97
2022-09-28T19:18:59.355Z,99424.22
2022-09-28T19:21:28.222Z,99426.84
2022-09-28T19:23:56.927Z,99432.94
2022-09-28T19:26:27.545Z,99425.06
2022-09-28T19:28:57.606Z,99429.34
2022-09-28T19:31:28.360Z,99430.19
2022-09-28T19:33:56.902Z,99432.84
2022-09-28T19:36:28.645Z,99434.53
2022-09-28T19:38:58.876Z,99432.84
2022-09-28T19:41:44.479Z,99434.53
2022-09-28T19:44:19.468Z,99441.44
2022-09-28T19:46:49.602Z,99433.56
2022-09-28T19:49:22.155Z,99443.06
2022-09-28T19:52:12.194Z,99435.28
2022-09-28T19:54:43.870Z,99439.59
2022-09-28T19:57:16.040Z,99443.00
2022-09-28T19:59:48.366Z,99442.97
2022-09-28T20:02:21.285Z,99445.59
2022-09-28T20:04:50.116Z,99446.44
2022-09-28T20:07:18.721Z,99458.50
2022-09-28T20:09:47.245Z,99453.28
2022-09-28T20:12:15.749Z,99452.41
2022-09-28T20:14:44.445Z,99455.84
2022-09-28T20:17:13.052Z,99462.78
2022-09-28T20:19:43.026Z,99461.00
2022-09-28T20:22:12.237Z,99462.69
2022-09-28T20:24:40.744Z,99462.63
2022-09-28T20:27:09.469Z,99466.06
2022-09-28T20:29:38.073Z,99464.31
2022-09-28T20:32:06.739Z,99467.72
2022-09-28T20:34:35.407Z,99469.44
2022-09-28T20:37:05.372Z,99476.31
2022-09-28T20:39:34.503Z,99474.53
2022-09-28T20:42:03.156Z,99478.78
2022-09-28T20:44:31.738Z,99481.38
2022-09-28T20:47:00.837Z,99489.16
2022-09-28T20:49:29.356Z,99487.38
2022-09-28T20:51:57.831Z,99490.81
2022-09-28T20:54:27.820Z,99495.16
2022-09-28T20:56:56.418Z,99491.75
2022-09-28T20:59:26.501Z,99494.28
2022-09-28T21:01:55.064Z,99493.41
2022-09-28T21:04:24.279Z,99502.91
2022-09-28T21:06:53.214Z,99500.22
2022-09-28T21:09:21.850Z,99508.88
2022-09-28T21:11:51.717Z,99510.59
2022-09-28T21:14:20.857Z,99514.84
2022-09-28T21:16:49.602Z,99512.28
2022-09-28T21:19:18.099Z,99519.16
2022-09-28T21:21:46.729Z,99513.94
2022-09-28T21:24:15.302Z,99519.13
2022-09-28T21:26:43.840Z,99520.06
2022-09-28T21:29:15.392Z,99528.66
2022-09-28T21:31:46.722Z,99526.97
2022-09-28T21:34:19.499Z,99518.31
2022-09-28T21:36:50.995Z,99528.75
2022-09-28T21:39:20.175Z,99525.31
2022-09-28T21:41:48.775Z,99529.59
2022-09-28T21:44:18.820Z,99534.84
2022-09-28T21:46:47.459Z,99530.59
2022-09-28T21:49:16.036Z,99535.72
2022-09-28T21:51:47.175Z,99540.06
2022-09-28T21:54:15.749Z,99534.91
2022-09-28T21:56:44.318Z,99539.28
2022-09-28T21:59:12.850Z,99534.91
2022-09-28T22:01:43.366Z,99533.19
2022-09-28T22:04:12.125Z,99547.06
2022-09-28T22:06:40.925Z,99537.56
2022-09-28T22:09:09.673Z,99541.03
2022-09-28T22:11:38.212Z,99540.22
2022-09-28T22:14:06.824Z,99536.81
2022-09-28T22:16:35.411Z,99535.94
2022-09-28T22:19:05.341Z,99531.66
2022-09-28T22:21:35.482Z,99542.91
2022-09-28T22:24:06.450Z,99535.16
2022-09-28T22:26:38.308Z,99541.25
2022-09-28T22:29:08.896Z,99542.94
2022-09-28T22:31:39.394Z,99546.38
2022-09-28T22:34:09.924Z,99542.91
2022-09-28T22:36:38.483Z,99549.84
2022-09-28T22:39:07.124Z,99548.94
2022-09-28T22:41:35.645Z,99552.38
2022-09-28T22:44:04.275Z,99555.88
2022-09-28T22:46:33.021Z,99556.69
2022-09-28T22:49:02.144Z,99557.59
2022-09-28T22:51:32.675Z,99563.59
2022-09-28T22:54:01.266Z,99553.97
2022-09-28T22:56:30.292Z,99559.16
2022-09-28T22:58:58.918Z,99565.16
2022-09-28T23:01:28.949Z,99557.28
2022-09-28T23:03:58.743Z,99562.47
2022-09-28T23:06:29.097Z,99557.22
2022-09-28T23:08:59.113Z,99556.31
2022-09-28T23:11:28.003Z,99560.56
2022-09-28T23:13:58.396Z,99554.47
2022-09-28T23:16:28.451Z,99559.63
2022-09-28T23:18:57.302Z,99559.56
2022-09-28T23:21:27.373Z,99559.56
2022-09-28T23:24:00.996Z,99556.94
2022-09-28T23:26:31.135Z,99562.06
2022-09-28T23:29:00.332Z,99553.38
2022-09-28T23:31:30.623Z,99552.47
2022-09-28T23:33:59.634Z,99552.50
2022-09-28T23:36:28.946Z,99550.72
2022-09-28T23:38:58.903Z,99552.47
2022-09-28T23:41:27.758Z,99567.09
2022-09-28T23:43:56.307Z,99559.28
2022-09-28T23:46:24.847Z,99555.78
2022-09-28T23:48:53.660Z,99557.56
2022-09-28T23:51:22.219Z,99567.91
2022-09-28T23:53:50.746Z,99562.59
2022-09-28T23:56:21.328Z,99562.59
2022-09-28T23:58:49.808Z,99560.00
